CMA CGM Kingfish — A8YW9 — position and weather

sailwx.info

Track history (hours):
 
Tides and Currents Weather Stations Pressure Air Temp Water Temp Dewpoint Dewpoint Depression Visibility Wind Speed Wind Dir Waves Ship Positions

CMA CGM Kingfish

Last reported at 2014-Jul-28 20:33 UTC. Time now 2014-Jul-28 20:37 UTC.
Position N 36°38' E 000°30'.

Length 294 m; draft 11.9 m.

Type: Ship (hazmat cat A). MMSI: 636015147.

Date/timePositionNaut miles runAvg speedWind from/ knotsBaromVisibWave heightAir tempDewpointWater temp
2014-Jul-28 20:33N 36°38' E 000°30'2019.8
2014-Jul-28 19:33N 36°41' E 000°55'4820.2
2014-Jul-28 17:12N 36°49' E 001°53'2120.2
2014-Jul-28 16:10N 36°53' E 002°19'1220.2
2014-Jul-28 15:33N 36°54' E 002°34'2020.0
2014-Jul-28 14:33N 36°58' E 002°59'2019.8
2014-Jul-28 13:33N 37°00' E 003°24'2119.8
2014-Jul-28 12:28N 37°03' E 003°50'1819.7
2014-Jul-28 11:33N 37°07' E 004°13'2819.8
2014-Jul-28 10:09N 37°12' E 004°46'1220.1
2014-Jul-28 09:33N 37°14' E 005°01'2019.9
2014-Jul-28 08:32N 37°17' E 005°27'1919.8
2014-Jul-28 07:33N 37°20' E 005°51'2619.9
2014-Jul-28 06:14N 37°24' E 006°23'11419.8
2014-Jul-28 00:28N 37°42' E 008°45'1919.8
2014-Jul-27 23:32N 37°43' E 009°09'2019.8
2014-Jul-27 22:33N 37°41' E 009°33'2019.5
2014-Jul-27 21:33N 37°39' E 009°58'11719.5
2014-Jul-27 15:33N 37°01' E 012°17'2020.1
2014-Jul-27 14:33N 36°53' E 012°40'1919.4
2014-Jul-27 13:33N 36°45' E 013°02'1919.3
2014-Jul-27 12:33N 36°37' E 013°23'1919.4
2014-Jul-27 11:33N 36°28' E 013°45'2019.7
2014-Jul-27 10:33N 36°19' E 014°07'2019.7
2014-Jul-27 09:33N 36°11' E 014°29'2020.0
2014-Jul-27 08:34N 36°05' E 014°53'2419.8
2014-Jul-27 07:21N 35°58' E 015°21'5519.8
2014-Jul-27 04:34N 35°42' E 016°26'  
2014-Jul-24 19:27N 31°28' E 031°46'5 5.1
2014-Jul-24 18:33N 31°32' E 031°46'4 4.2
2014-Jul-24 17:34N 31°36' E 031°47'1111.5
2014-Jul-24 16:33N 31°42' E 031°58'1212.4
2014-Jul-24 15:33N 31°35' E 032°10'1615.5
2014-Jul-24 14:33N 31°25' E 032°24'1312.9
2014-Jul-24 13:31N 31°12' E 032°20'9 9.1
2014-Jul-24 12:33N 31°03' E 032°19'10 9.5
2014-Jul-24 11:32N 30°54' E 032°19'10 9.9
2014-Jul-24 10:33N 30°44' E 032°20'46 7.8
2014-Jul-24 04:33N 29°59' E 032°35'11 2.1
2014-Jul-23 23:14N 29°48' E 032°33'2313.7
2014-Jul-23 21:33N 29°26' E 032°40'  
Track history (hours):
 
Tides and Currents Weather Stations Pressure Air Temp Water Temp Dewpoint Dewpoint Depression Visibility Wind Speed Wind Dir Waves Ship Positions

CMA CGM Kingfish

Last reported at 2014-Jul-28 20:33 UTC. Time now 2014-Jul-28 20:37 UTC.
Position N 36°38' E 000°30'.

Length 294 m; draft 11.9 m.

Type: Ship (hazmat cat A). MMSI: 636015147.

Date/timePositionNaut miles runAvg speedWind from/ knotsBaromVisibWave heightAir tempDewpointWater temp
2014-Jul-28 20:33N 36°38' E 000°30'2019.8
2014-Jul-28 19:33N 36°41' E 000°55'4820.2
2014-Jul-28 17:12N 36°49' E 001°53'2120.2
2014-Jul-28 16:10N 36°53' E 002°19'1220.2
2014-Jul-28 15:33N 36°54' E 002°34'2020.0
2014-Jul-28 14:33N 36°58' E 002°59'2019.8
2014-Jul-28 13:33N 37°00' E 003°24'2119.8
2014-Jul-28 12:28N 37°03' E 003°50'1819.7
2014-Jul-28 11:33N 37°07' E 004°13'2819.8
2014-Jul-28 10:09N 37°12' E 004°46'1220.1
2014-Jul-28 09:33N 37°14' E 005°01'2019.9
2014-Jul-28 08:32N 37°17' E 005°27'1919.8
2014-Jul-28 07:33N 37°20' E 005°51'2619.9
2014-Jul-28 06:14N 37°24' E 006°23'11419.8
2014-Jul-28 00:28N 37°42' E 008°45'1919.8
2014-Jul-27 23:32N 37°43' E 009°09'2019.8
2014-Jul-27 22:33N 37°41' E 009°33'2019.5
2014-Jul-27 21:33N 37°39' E 009°58'11719.5
2014-Jul-27 15:33N 37°01' E 012°17'2020.1
2014-Jul-27 14:33N 36°53' E 012°40'1919.4
2014-Jul-27 13:33N 36°45' E 013°02'1919.3
2014-Jul-27 12:33N 36°37' E 013°23'1919.4
2014-Jul-27 11:33N 36°28' E 013°45'2019.7
2014-Jul-27 10:33N 36°19' E 014°07'2019.7
2014-Jul-27 09:33N 36°11' E 014°29'2020.0
2014-Jul-27 08:34N 36°05' E 014°53'2419.8
2014-Jul-27 07:21N 35°58' E 015°21'5519.8
2014-Jul-27 04:34N 35°42' E 016°26'  
2014-Jul-24 19:27N 31°28' E 031°46'5 5.1
2014-Jul-24 18:33N 31°32' E 031°46'4 4.2
2014-Jul-24 17:34N 31°36' E 031°47'1111.5
2014-Jul-24 16:33N 31°42' E 031°58'1212.4
2014-Jul-24 15:33N 31°35' E 032°10'1615.5
2014-Jul-24 14:33N 31°25' E 032°24'1312.9
2014-Jul-24 13:31N 31°12' E 032°20'9 9.1
2014-Jul-24 12:33N 31°03' E 032°19'10 9.5
2014-Jul-24 11:32N 30°54' E 032°19'10 9.9
2014-Jul-24 10:33N 30°44' E 032°20'46 7.8
2014-Jul-24 04:33N 29°59' E 032°35'11 2.1
2014-Jul-23 23:14N 29°48' E 032°33'2313.7
2014-Jul-23 21:33N 29°26' E 032°40'  

Dump ship's entire track history